createdAt,value
2018-12-07T00:00:29.219Z,0.40
2018-12-07T00:02:57.831Z,0.30
2018-12-07T00:05:26.523Z,0.40
2018-12-07T00:07:56.780Z,0.30
2018-12-07T00:10:25.442Z,0.40
2018-12-07T00:12:54.152Z,0.40
2018-12-07T00:15:22.890Z,0.40
2018-12-07T00:17:51.559Z,0.40
2018-12-07T00:20:20.226Z,0.40
2018-12-07T00:22:48.961Z,0.40
2018-12-07T00:25:17.643Z,0.40
2018-12-07T00:27:46.313Z,0.40
2018-12-07T00:30:15.003Z,0.40
2018-12-07T00:32:43.663Z,0.40
2018-12-07T00:35:12.390Z,0.40
2018-12-07T00:37:41.023Z,0.40
2018-12-07T00:40:09.967Z,0.40
2018-12-07T00:42:38.857Z,0.40
2018-12-07T00:45:07.652Z,0.40
2018-12-07T00:47:36.286Z,0.40
2018-12-07T00:50:05.675Z,0.40
2018-12-07T00:52:34.401Z,0.40
2018-12-07T00:55:03.082Z,0.40
2018-12-07T00:57:31.776Z,0.40
2018-12-07T01:00:00.445Z,0.40
2018-12-07T01:02:29.267Z,0.40
2018-12-07T01:04:57.943Z,0.40
2018-12-07T01:07:26.615Z,0.40
2018-12-07T01:09:55.361Z,0.40
2018-12-07T01:12:24.193Z,0.40
2018-12-07T01:14:52.878Z,0.40
2018-12-07T01:17:21.554Z,0.40
2018-12-07T01:19:50.220Z,0.40
2018-12-07T01:22:18.927Z,0.40
2018-12-07T01:24:47.745Z,0.40
2018-12-07T01:27:16.375Z,0.40
2018-12-07T01:29:45.115Z,0.40
2018-12-07T01:32:13.773Z,0.40
2018-12-07T01:34:42.482Z,0.40
2018-12-07T01:37:11.271Z,0.40
2018-12-07T01:39:39.901Z,0.40
2018-12-07T01:42:08.605Z,0.50
2018-12-07T01:44:37.324Z,0.50
2018-12-07T01:47:06.131Z,0.50
2018-12-07T01:49:34.761Z,0.50
2018-12-07T01:52:03.576Z,0.50
2018-12-07T01:54:32.314Z,0.50
2018-12-07T01:57:00.999Z,0.60
2018-12-07T01:59:29.593Z,0.60
2018-12-07T02:01:58.182Z,0.60
2018-12-07T02:04:26.841Z,0.60
2018-12-07T02:06:55.449Z,0.60
2018-12-07T02:09:24.035Z,0.60
2018-12-07T02:11:52.722Z,0.60
2018-12-07T02:14:21.535Z,0.60
2018-12-07T02:16:50.195Z,0.60
2018-12-07T02:19:18.863Z,0.60
2018-12-07T02:21:47.458Z,0.60
2018-12-07T02:24:16.129Z,0.60
2018-12-07T02:26:44.729Z,0.60
2018-12-07T02:29:13.415Z,0.60
2018-12-07T02:31:42.234Z,0.60
2018-12-07T02:34:10.900Z,0.70
2018-12-07T02:36:39.549Z,0.60
2018-12-07T02:39:08.221Z,0.70
2018-12-07T02:41:36.834Z,0.70
2018-12-07T02:44:05.574Z,0.70
2018-12-07T02:46:34.206Z,0.70
2018-12-07T02:49:02.877Z,0.70
2018-12-07T02:51:31.618Z,0.70
2018-12-07T02:54:00.280Z,0.70
2018-12-07T02:56:28.922Z,0.70
2018-12-07T02:58:57.545Z,0.80
2018-12-07T03:01:26.218Z,0.80
2018-12-07T03:03:55.133Z,0.70
2018-12-07T03:06:23.775Z,0.70
2018-12-07T03:08:52.352Z,0.80
2018-12-07T03:11:20.979Z,0.80
2018-12-07T03:13:49.646Z,0.80
2018-12-07T03:16:18.477Z,0.80
2018-12-07T03:18:47.100Z,0.80
2018-12-07T03:21:15.699Z,0.80
2018-12-07T03:23:44.563Z,0.80
2018-12-07T03:26:13.152Z,0.80
2018-12-07T03:28:41.983Z,0.90
2018-12-07T03:31:10.626Z,0.90
2018-12-07T03:33:39.462Z,0.90
2018-12-07T03:36:08.168Z,0.90
2018-12-07T03:38:36.778Z,0.90
2018-12-07T03:41:06.023Z,0.90
2018-12-07T03:43:34.765Z,0.90
2018-12-07T03:46:03.369Z,0.90
2018-12-07T03:48:32.178Z,0.90
2018-12-07T03:51:00.868Z,0.90
2018-12-07T03:53:29.709Z,0.90
2018-12-07T03:55:58.800Z,0.90
2018-12-07T03:58:27.438Z,1.00
2018-12-07T04:00:56.171Z,1.00
2018-12-07T04:03:24.873Z,1.00
2018-12-07T04:05:53.685Z,1.00
2018-12-07T04:08:22.474Z,1.00
2018-12-07T04:10:51.113Z,1.00
2018-12-07T04:13:19.799Z,1.10
2018-12-07T04:15:48.411Z,1.10
2018-12-07T04:18:17.193Z,1.10
2018-12-07T04:20:45.883Z,1.10
2018-12-07T04:23:14.675Z,1.10
2018-12-07T04:25:43.585Z,1.10
2018-12-07T04:28:12.230Z,1.20
2018-12-07T04:30:40.960Z,1.20
2018-12-07T04:33:09.877Z,1.20
2018-12-07T04:35:38.510Z,1.20
2018-12-07T04:38:07.302Z,1.20
2018-12-07T04:40:35.981Z,1.20
2018-12-07T04:43:04.695Z,1.20
2018-12-07T04:45:33.350Z,1.20
2018-12-07T04:48:02.006Z,1.30
2018-12-07T04:50:30.718Z,1.30
2018-12-07T04:52:59.538Z,1.30
2018-12-07T04:55:28.167Z,1.30
2018-12-07T04:57:56.872Z,1.30
2018-12-07T05:01:54.814Z,1.30
2018-12-07T05:04:23.533Z,1.30
2018-12-07T05:06:52.230Z,1.30
2018-12-07T05:09:20.837Z,1.30
2018-12-07T05:11:49.479Z,1.40
2018-12-07T05:14:18.354Z,1.40
2018-12-07T05:16:46.959Z,1.40
2018-12-07T05:19:15.876Z,1.40
2018-12-07T05:21:44.514Z,1.40
2018-12-07T05:24:13.081Z,1.40
2018-12-07T05:26:41.666Z,1.40
2018-12-07T05:29:10.407Z,1.40
2018-12-07T05:31:39.067Z,1.40
2018-12-07T05:34:07.878Z,1.40
2018-12-07T05:36:36.768Z,1.40
2018-12-07T05:39:07.035Z,1.50
2018-12-07T05:41:35.831Z,1.50
2018-12-07T05:44:04.409Z,1.50
2018-12-07T05:46:33.195Z,1.50
2018-12-07T05:49:01.785Z,1.50
2018-12-07T05:51:30.370Z,1.60
2018-12-07T05:53:58.978Z,1.50
2018-12-07T05:56:27.626Z,1.60
2018-12-07T05:58:56.477Z,1.60
2018-12-07T06:01:25.107Z,1.60
2018-12-07T06:03:53.990Z,1.60
2018-12-07T06:06:22.693Z,1.70
2018-12-07T06:08:51.322Z,1.70
2018-12-07T06:11:19.950Z,1.70
2018-12-07T06:13:48.530Z,1.70
2018-12-07T06:16:17.275Z,1.70
2018-12-07T06:18:45.962Z,1.70
2018-12-07T06:21:14.749Z,1.80
2018-12-07T06:23:43.378Z,1.80
2018-12-07T06:26:11.978Z,1.80
2018-12-07T06:28:40.686Z,1.80
2018-12-07T06:31:09.349Z,1.90
2018-12-07T06:33:38.070Z,1.90
2018-12-07T06:36:06.806Z,2.00
2018-12-07T06:38:35.438Z,2.00
2018-12-07T06:41:04.066Z,2.00
2018-12-07T06:43:32.654Z,2.10
2018-12-07T06:46:01.255Z,2.10
2018-12-07T06:48:29.940Z,2.10
2018-12-07T06:50:58.610Z,2.10
2018-12-07T06:53:27.293Z,2.10
2018-12-07T06:55:55.967Z,2.20
2018-12-07T06:58:24.610Z,2.20
2018-12-07T07:00:53.270Z,2.20
2018-12-07T07:03:21.943Z,2.30
2018-12-07T07:05:50.678Z,2.30
2018-12-07T07:08:19.338Z,2.30
2018-12-07T07:10:47.914Z,2.40
2018-12-07T07:13:16.610Z,2.40
2018-12-07T07:15:45.246Z,2.40
2018-12-07T07:18:13.928Z,2.50
2018-12-07T07:20:42.698Z,2.50
2018-12-07T07:23:11.325Z,2.50
2018-12-07T07:25:40.030Z,2.50
2018-12-07T07:28:08.715Z,2.50
2018-12-07T07:30:37.512Z,2.60
2018-12-07T07:33:06.276Z,2.70
2018-12-07T07:35:34.959Z,2.70
2018-12-07T07:38:03.605Z,2.70
2018-12-07T07:40:32.184Z,2.70
2018-12-07T07:43:00.815Z,2.70
2018-12-07T07:45:29.518Z,2.70
2018-12-07T07:47:58.181Z,2.80
2018-12-07T07:50:26.834Z,2.80
2018-12-07T07:52:55.441Z,2.90
2018-12-07T07:55:24.135Z,2.90
2018-12-07T07:57:52.813Z,2.90
2018-12-07T08:00:22.504Z,3.00
2018-12-07T08:02:51.105Z,3.00
2018-12-07T08:05:19.826Z,3.10
2018-12-07T08:07:48.452Z,3.10
2018-12-07T08:10:17.066Z,3.10
2018-12-07T08:12:45.776Z,3.10
2018-12-07T08:15:14.403Z,3.20
2018-12-07T08:17:42.993Z,3.20
2018-12-07T08:20:11.594Z,3.30
2018-12-07T08:22:40.451Z,3.30
2018-12-07T08:25:09.394Z,3.30
2018-12-07T08:27:38.136Z,3.30
2018-12-07T08:30:09.591Z,3.30
2018-12-07T08:32:38.832Z,3.40
2018-12-07T08:35:08.069Z,3.40
2018-12-07T08:37:36.667Z,3.50
2018-12-07T08:40:07.189Z,3.50
2018-12-07T08:42:35.929Z,3.50
2018-12-07T08:45:06.411Z,3.50
2018-12-07T08:47:35.230Z,3.60
2018-12-07T08:50:04.955Z,3.60
2018-12-07T08:52:33.605Z,3.60
2018-12-07T08:55:02.273Z,3.60
2018-12-07T08:57:30.996Z,3.70
2018-12-07T08:59:59.677Z,3.70
2018-12-07T09:02:28.463Z,3.70
2018-12-07T09:04:57.191Z,3.80
2018-12-07T09:07:25.807Z,3.80
2018-12-07T09:09:54.377Z,3.90
2018-12-07T09:12:23.120Z,3.90
2018-12-07T09:14:51.846Z,3.90
2018-12-07T09:17:20.548Z,4.00
2018-12-07T09:19:49.226Z,4.00
2018-12-07T09:22:17.807Z,4.00
2018-12-07T09:24:46.551Z,4.10
2018-12-07T09:27:15.175Z,4.10
2018-12-07T09:29:43.786Z,4.10
2018-12-07T09:32:12.775Z,4.10
2018-12-07T09:34:41.461Z,4.10
2018-12-07T09:37:10.151Z,4.10
2018-12-07T09:39:38.812Z,4.20
2018-12-07T09:42:07.613Z,4.20
2018-12-07T09:44:36.313Z,4.20
2018-12-07T09:47:05.060Z,4.20
2018-12-07T09:49:33.773Z,4.20
2018-12-07T09:52:02.480Z,4.30
2018-12-07T09:54:31.130Z,4.30
2018-12-07T09:56:59.743Z,4.30
2018-12-07T09:59:28.662Z,4.30
2018-12-07T10:01:57.326Z,4.40
2018-12-07T10:04:25.955Z,4.40
2018-12-07T10:06:54.573Z,4.40
2018-12-07T10:09:24.414Z,4.50
2018-12-07T10:11:52.973Z,4.50
2018-12-07T10:14:21.621Z,4.50
2018-12-07T10:16:50.281Z,4.50
2018-12-07T10:19:18.913Z,4.60
2018-12-07T10:21:47.928Z,4.70
2018-12-07T10:24:16.951Z,4.70
2018-12-07T10:26:45.819Z,4.70
2018-12-07T10:29:14.441Z,4.80
2018-12-07T10:31:43.742Z,4.80
2018-12-07T10:34:12.579Z,4.90
2018-12-07T10:36:41.273Z,4.90
2018-12-07T10:39:09.904Z,4.90
2018-12-07T10:41:38.629Z,5.00
2018-12-07T10:44:07.308Z,5.00
2018-12-07T10:46:36.345Z,5.00
2018-12-07T10:49:05.028Z,5.00
2018-12-07T10:51:33.643Z,5.10
2018-12-07T10:54:02.400Z,5.00
2018-12-07T10:56:31.029Z,5.10
2018-12-07T10:58:59.743Z,5.10
2018-12-07T11:01:33.787Z,5.10
2018-12-07T11:04:07.876Z,5.10
2018-12-07T11:06:41.981Z,5.20
2018-12-07T11:09:16.002Z,5.20
2018-12-07T11:11:51.818Z,5.20
2018-12-07T11:14:25.869Z,5.20
2018-12-07T11:16:59.773Z,5.20
2018-12-07T11:19:33.642Z,5.30
2018-12-07T11:22:07.701Z,5.30
2018-12-07T11:24:41.615Z,5.30
2018-12-07T11:27:15.644Z,5.30
2018-12-07T11:29:49.533Z,5.40
2018-12-07T11:32:25.285Z,5.40
2018-12-07T11:34:59.067Z,5.50
2018-12-07T11:37:28.533Z,5.40
2018-12-07T11:39:57.507Z,5.50
2018-12-07T11:42:26.089Z,5.50
2018-12-07T11:44:54.823Z,5.50
2018-12-07T11:47:23.501Z,5.50
2018-12-07T11:49:52.242Z,5.60
2018-12-07T11:52:20.870Z,5.60
2018-12-07T11:59:57.673Z,5.70
2018-12-07T12:02:26.678Z,5.70
2018-12-07T12:04:55.503Z,5.70
2018-12-07T12:07:24.195Z,5.70
2018-12-07T12:09:52.821Z,5.80
2018-12-07T12:12:21.624Z,5.80
2018-12-07T12:14:50.270Z,5.80
2018-12-07T12:17:18.858Z,5.80
2018-12-07T12:19:48.607Z,5.90
2018-12-07T12:22:17.286Z,5.90
2018-12-07T12:24:45.904Z,5.90
2018-12-07T12:27:14.621Z,6.00
2018-12-07T12:29:43.889Z,6.00
2018-12-07T12:32:12.490Z,6.10
2018-12-07T12:34:41.109Z,6.10
2018-12-07T12:37:09.754Z,6.10
2018-12-07T12:39:38.349Z,6.10
2018-12-07T12:42:07.139Z,6.20
2018-12-07T12:44:35.805Z,6.20
2018-12-07T12:47:04.654Z,6.20
2018-12-07T12:49:33.433Z,6.20
2018-12-07T12:52:02.056Z,6.20
2018-12-07T12:54:30.633Z,6.20
2018-12-07T12:56:59.259Z,6.20
2018-12-07T12:59:28.058Z,6.20
2018-12-07T13:01:56.718Z,6.30
2018-12-07T13:04:25.412Z,6.30
2018-12-07T13:06:54.086Z,6.30
2018-12-07T13:09:22.642Z,6.40
2018-12-07T13:11:51.264Z,6.40
2018-12-07T13:14:19.942Z,6.30
2018-12-07T13:16:48.763Z,6.40
2018-12-07T13:19:17.412Z,6.40
2018-12-07T13:21:46.341Z,6.50
2018-12-07T13:24:14.969Z,6.50
2018-12-07T13:26:43.554Z,6.40
2018-12-07T13:29:12.420Z,6.50
2018-12-07T13:31:41.126Z,6.50
2018-12-07T13:34:09.725Z,6.50
2018-12-07T13:36:38.457Z,6.50
2018-12-07T13:39:08.767Z,6.60
2018-12-07T13:41:37.607Z,6.60
2018-12-07T13:44:06.326Z,6.60
2018-12-07T13:46:35.146Z,6.60
2018-12-07T13:49:03.936Z,6.60
2018-12-07T13:51:32.714Z,6.60
2018-12-07T13:54:01.886Z,6.60
2018-12-07T13:56:30.691Z,6.60
2018-12-07T13:58:59.549Z,6.60
2018-12-07T14:01:28.651Z,6.60
2018-12-07T14:03:57.311Z,6.60
2018-12-07T14:06:26.394Z,6.60
2018-12-07T14:08:55.161Z,6.70
2018-12-07T14:11:23.889Z,6.70
2018-12-07T14:13:52.792Z,6.60
2018-12-07T14:16:21.580Z,6.70
2018-12-07T14:18:50.353Z,6.70
2018-12-07T14:21:19.132Z,6.70
2018-12-07T14:23:48.123Z,6.70
2018-12-07T14:26:16.931Z,6.70
2018-12-07T14:28:45.860Z,6.70
2018-12-07T14:31:14.640Z,6.70
2018-12-07T14:33:43.422Z,6.70
2018-12-07T14:36:12.151Z,6.60
2018-12-07T14:38:40.891Z,6.70
2018-12-07T14:41:09.815Z,6.60
2018-12-07T14:43:38.825Z,6.60
2018-12-07T14:46:07.734Z,6.60
2018-12-07T14:48:36.599Z,6.60
2018-12-07T14:51:05.639Z,6.60
2018-12-07T14:53:34.477Z,6.60
2018-12-07T14:56:03.361Z,6.60
2018-12-07T14:58:32.368Z,6.60
2018-12-07T15:01:01.320Z,6.60
2018-12-07T15:03:30.239Z,6.60
2018-12-07T15:05:59.086Z,6.60
2018-12-07T15:08:28.183Z,6.60
2018-12-07T15:10:57.095Z,6.60
2018-12-07T15:13:26.062Z,6.60
2018-12-07T15:15:55.980Z,6.60
2018-12-07T15:18:24.788Z,6.60
2018-12-07T15:20:53.921Z,6.60
2018-12-07T15:23:22.903Z,6.60
2018-12-07T15:25:51.811Z,6.60
2018-12-07T15:28:20.787Z,6.60
2018-12-07T15:30:49.891Z,6.60
2018-12-07T15:33:18.895Z,6.60
2018-12-07T15:35:47.577Z,6.60
2018-12-07T15:38:16.517Z,6.60
2018-12-07T15:40:46.040Z,6.60
2018-12-07T15:43:14.945Z,6.60
2018-12-07T15:45:43.895Z,6.60
2018-12-07T15:48:12.712Z,6.60
2018-12-07T15:50:41.560Z,6.60
2018-12-07T15:53:10.259Z,6.60
2018-12-07T15:55:39.190Z,6.60
2018-12-07T15:58:07.991Z,6.60
2018-12-07T16:00:36.838Z,6.60
2018-12-07T16:03:05.966Z,6.60
2018-12-07T16:05:34.842Z,6.60
2018-12-07T16:08:03.646Z,6.60
2018-12-07T16:10:32.495Z,6.60
2018-12-07T16:13:01.236Z,6.70
2018-12-07T16:15:30.234Z,6.60
2018-12-07T16:17:59.070Z,6.70
2018-12-07T16:20:27.784Z,6.60
2018-12-07T16:22:56.668Z,6.60
2018-12-07T16:25:25.416Z,6.60
2018-12-07T16:27:54.235Z,6.70
2018-12-07T16:30:23.045Z,6.60
2018-12-07T16:32:51.641Z,6.70
2018-12-07T16:35:20.808Z,6.70
2018-12-07T16:37:49.623Z,6.60
2018-12-07T16:40:18.470Z,6.60
2018-12-07T16:42:47.418Z,6.60
2018-12-07T16:45:16.971Z,6.60
2018-12-07T16:47:45.761Z,6.60
2018-12-07T16:50:14.666Z,6.60
2018-12-07T16:52:43.389Z,6.70
2018-12-07T16:55:12.434Z,6.60
2018-12-07T16:57:41.513Z,6.60
2018-12-07T17:00:10.861Z,6.60
2018-12-07T17:02:39.888Z,6.60
2018-12-07T17:05:10.119Z,6.60
2018-12-07T17:07:38.994Z,6.60
2018-12-07T17:10:08.744Z,6.70
2018-12-07T17:12:37.520Z,6.70
2018-12-07T17:15:08.113Z,6.60
2018-12-07T17:17:37.121Z,6.70
2018-12-07T17:20:06.523Z,6.70
2018-12-07T17:22:35.551Z,6.70
2018-12-07T17:25:04.691Z,6.60
2018-12-07T17:27:33.494Z,6.70
2018-12-07T17:30:02.380Z,6.70
2018-12-07T17:32:31.338Z,6.70
2018-12-07T17:35:00.257Z,6.70
2018-12-07T17:37:29.432Z,6.70
2018-12-07T17:39:58.264Z,6.70
2018-12-07T17:42:29.662Z,6.70
2018-12-07T17:44:57.505Z,6.70
2018-12-07T17:47:26.355Z,6.70
2018-12-07T17:49:55.300Z,6.80
2018-12-07T17:52:24.129Z,6.80
2018-12-07T17:54:53.110Z,6.80
2018-12-07T17:57:22.390Z,6.80
2018-12-07T17:59:51.493Z,6.80
2018-12-07T18:02:20.394Z,6.80
2018-12-07T18:04:49.191Z,6.80
2018-12-07T18:07:18.034Z,6.80
2018-12-07T18:09:46.714Z,6.80
2018-12-07T18:12:16.283Z,6.80
2018-12-07T18:14:45.034Z,6.90
2018-12-07T18:17:13.697Z,6.80
2018-12-07T18:19:42.649Z,6.80
2018-12-07T18:22:11.391Z,6.90
2018-12-07T18:24:40.213Z,6.80
2018-12-07T18:27:08.911Z,6.90
2018-12-07T18:29:37.895Z,6.80
2018-12-07T18:32:06.663Z,6.90
2018-12-07T18:34:35.497Z,6.90
2018-12-07T18:37:04.694Z,6.90
2018-12-07T18:39:33.566Z,6.90
2018-12-07T18:42:02.501Z,6.90
2018-12-07T18:44:31.940Z,6.90
2018-12-07T18:47:00.719Z,6.90
2018-12-07T18:49:29.634Z,6.90
2018-12-07T18:51:58.406Z,6.90
2018-12-07T18:54:27.144Z,6.90
2018-12-07T18:56:55.782Z,6.90
2018-12-07T18:59:25.527Z,6.90
2018-12-07T19:01:54.326Z,7.00
2018-12-07T19:04:23.318Z,7.00
2018-12-07T19:06:53.449Z,6.90
2018-12-07T19:09:22.359Z,6.90
2018-12-07T19:11:51.443Z,7.00
2018-12-07T19:14:20.567Z,7.00
2018-12-07T19:16:49.830Z,7.00
2018-12-07T19:19:18.534Z,7.00
2018-12-07T19:21:47.567Z,7.00
2018-12-07T19:24:16.754Z,7.00
2018-12-07T19:26:45.704Z,7.00
2018-12-07T19:29:14.635Z,7.00
2018-12-07T19:31:43.409Z,7.00
2018-12-07T19:34:12.206Z,7.00
2018-12-07T19:36:41.052Z,7.00
2018-12-07T19:39:09.993Z,7.10
2018-12-07T19:41:39.070Z,7.00
2018-12-07T19:44:08.068Z,7.10
2018-12-07T19:46:37.092Z,7.10
2018-12-07T19:49:05.952Z,7.10
2018-12-07T19:51:34.765Z,7.10
2018-12-07T19:54:03.929Z,7.10
2018-12-07T19:56:32.882Z,7.10
2018-12-07T19:59:01.826Z,7.10
2018-12-07T20:01:30.657Z,7.10
2018-12-07T20:03:59.370Z,7.10
2018-12-07T20:06:28.310Z,7.10
2018-12-07T20:08:57.297Z,7.10
2018-12-07T20:11:25.932Z,7.10
2018-12-07T20:13:54.879Z,7.10
2018-12-07T20:16:23.673Z,7.10
2018-12-07T20:18:52.721Z,7.10
2018-12-07T20:21:21.751Z,7.20
2018-12-07T20:23:50.483Z,7.20
2018-12-07T20:26:19.630Z,7.20
2018-12-07T20:28:48.409Z,7.10
2018-12-07T20:31:17.680Z,7.10
2018-12-07T20:33:46.353Z,7.20
2018-12-07T20:36:15.131Z,7.10
2018-12-07T20:38:43.818Z,7.20
2018-12-07T20:41:12.859Z,7.20
2018-12-07T20:43:41.818Z,7.20
2018-12-07T20:46:10.560Z,7.20
2018-12-07T20:48:39.319Z,7.20
2018-12-07T20:51:08.285Z,7.20
2018-12-07T20:53:37.149Z,7.20
2018-12-07T20:56:06.030Z,7.20
2018-12-07T20:58:34.966Z,7.20
2018-12-07T21:01:04.339Z,7.20
2018-12-07T21:04:42.501Z,7.10
2018-12-07T21:07:54.842Z,7.10
2018-12-07T21:10:56.102Z,7.10
2018-12-07T21:13:38.709Z,7.10
2018-12-07T21:17:15.768Z,7.10
2018-12-07T21:19:54.348Z,7.10
2018-12-07T21:22:23.069Z,7.20
2018-12-07T21:24:52.067Z,7.20
2018-12-07T21:27:21.200Z,7.20
2018-12-07T21:31:07.398Z,7.10
2018-12-07T21:34:49.534Z,7.20
2018-12-07T21:37:18.171Z,7.20
2018-12-07T21:39:50.011Z,7.20
2018-12-07T21:42:19.381Z,7.20
2018-12-07T21:44:48.546Z,7.20
2018-12-07T21:47:44.014Z,7.20
2018-12-07T21:50:14.744Z,7.20
2018-12-07T21:52:43.486Z,7.20
2018-12-07T21:55:12.354Z,7.20
2018-12-07T21:57:41.395Z,7.20
2018-12-07T22:00:10.430Z,7.20
2018-12-07T22:02:39.502Z,7.20
2018-12-07T22:05:08.787Z,7.20
2018-12-07T22:07:37.860Z,7.20
2018-12-07T22:10:06.818Z,7.20
2018-12-07T22:14:04.729Z,7.20
2018-12-07T22:16:33.393Z,7.20
2018-12-07T22:19:02.224Z,7.20
2018-12-07T22:21:31.210Z,7.20
2018-12-07T22:24:00.291Z,7.30
2018-12-07T22:26:28.922Z,7.30
2018-12-07T22:28:57.644Z,7.30
2018-12-07T22:31:26.759Z,7.20
2018-12-07T22:33:55.537Z,7.20
2018-12-07T22:36:24.627Z,7.20
2018-12-07T22:38:53.688Z,7.30
2018-12-07T22:41:22.544Z,7.30
2018-12-07T22:43:51.700Z,7.30
2018-12-07T22:46:20.654Z,7.30
2018-12-07T22:48:49.606Z,7.30
2018-12-07T22:51:22.814Z,7.30
2018-12-07T22:53:51.789Z,7.20
2018-12-07T22:56:20.441Z,7.30
2018-12-07T22:58:49.249Z,7.30
2018-12-07T23:01:18.034Z,7.30
2018-12-07T23:03:46.813Z,7.30
2018-12-07T23:06:16.254Z,7.30
2018-12-07T23:08:45.063Z,7.20
2018-12-07T23:11:13.657Z,7.30
2018-12-07T23:13:42.335Z,7.30
2018-12-07T23:16:10.943Z,7.30
2018-12-07T23:18:39.631Z,7.30
2018-12-07T23:21:08.298Z,7.30
2018-12-07T23:23:36.905Z,7.30
2018-12-07T23:26:05.618Z,7.30
2018-12-07T23:28:34.401Z,7.30
2018-12-07T23:31:03.083Z,7.30
2018-12-07T23:33:31.741Z,7.20
2018-12-07T23:36:00.759Z,7.20
2018-12-07T23:38:29.395Z,7.20
2018-12-07T23:40:58.002Z,7.20
2018-12-07T23:43:26.714Z,7.20
2018-12-07T23:45:55.445Z,7.20
2018-12-07T23:48:24.698Z,7.20
2018-12-07T23:50:53.482Z,7.20
2018-12-07T23:53:22.130Z,7.20
2018-12-07T23:55:50.931Z,7.20
2018-12-07T23:58:19.635Z,7.20
